Terminal Aerodrome Forecast
Issued by NWS

Home | Current Version | Previous Version | Text Only | Print | Product List | Glossary On
Versions: 1 2 3 4 5 6 7 8 9 10 11 12 13 14 15 16 17 18 19
000
FTUS43 KIND 261413 AAB
TAFLAF
TAF AMD
KLAF 261413Z 2614/2712 17008KT P6SM SCT100 BKN250
     FM262100 16007KT P6SM VCTS BKN110CB
     FM270600 21004KT 2SM BR BKN025
     FM270800 35004KT 2SM BR BKN015=

USA.gov is the U.S. government's official web portal to all federal, state and local government web resources and services.